createdAt,value
2023-09-10T00:01:06.938Z,16.10
2023-09-10T00:05:11.751Z,16.00
2023-09-10T00:09:17.513Z,16.00
2023-09-10T00:13:22.499Z,16.00
2023-09-10T00:17:25.606Z,16.00
2023-09-10T00:21:30.071Z,16.00
2023-09-10T00:25:34.467Z,16.00
2023-09-10T00:29:37.496Z,15.90
2023-09-10T00:33:41.654Z,15.90
2023-09-10T00:37:46.397Z,15.90
2023-09-10T00:41:49.510Z,15.80
2023-09-10T00:45:53.220Z,15.80
2023-09-10T00:49:56.998Z,15.80
2023-09-10T00:54:04.174Z,15.80
2023-09-10T00:58:07.495Z,15.80
2023-09-10T01:02:16.990Z,15.70
2023-09-10T01:06:22.243Z,15.60
2023-09-10T01:10:35.601Z,15.50
2023-09-10T01:14:42.958Z,15.50
2023-09-10T01:18:49.645Z,15.50
2023-09-10T01:23:05.360Z,15.50
2023-09-10T01:27:09.831Z,15.50
2023-09-10T01:31:15.540Z,15.50
2023-09-10T01:35:25.361Z,15.50
2023-09-10T01:39:37.439Z,15.40
2023-09-10T01:43:42.784Z,15.40
2023-09-10T01:47:50.657Z,15.30
2023-09-10T01:51:55.834Z,15.30
2023-09-10T01:55:59.631Z,15.30
2023-09-10T02:00:09.205Z,15.20
2023-09-10T02:04:12.486Z,15.10
2023-09-10T02:08:16.580Z,15.10
2023-09-10T02:12:24.052Z,15.00
2023-09-10T02:16:30.995Z,15.10
2023-09-10T02:20:39.470Z,15.10
2023-09-10T02:24:42.525Z,15.00
2023-09-10T02:28:50.710Z,15.00
2023-09-10T02:32:58.673Z,15.00
2023-09-10T02:37:03.883Z,15.10
2023-09-10T02:41:07.118Z,15.10
2023-09-10T02:45:12.402Z,15.20
2023-09-10T02:49:21.935Z,15.10
2023-09-10T02:53:25.535Z,15.00
2023-09-10T02:57:28.602Z,15.00
2023-09-10T03:01:31.675Z,15.00
2023-09-10T03:05:37.923Z,14.90
2023-09-10T03:09:41.268Z,14.90
2023-09-10T03:13:50.034Z,14.80
2023-09-10T03:17:55.888Z,14.80
2023-09-10T03:22:00.353Z,14.80
2023-09-10T03:26:03.773Z,14.80
2023-09-10T03:30:09.413Z,14.80
2023-09-10T03:34:12.813Z,14.70
2023-09-10T03:38:17.460Z,14.80
2023-09-10T03:42:22.422Z,14.80
2023-09-10T03:46:27.639Z,14.80
2023-09-10T03:50:31.214Z,14.70
2023-09-10T03:54:37.416Z,14.70
2023-09-10T03:58:41.039Z,14.70
2023-09-10T04:02:46.613Z,14.60
2023-09-10T04:06:49.697Z,14.60
2023-09-10T04:10:59.277Z,14.60
2023-09-10T04:15:02.334Z,14.60
2023-09-10T04:19:05.731Z,14.50
2023-09-10T04:23:09.230Z,14.50
2023-09-10T04:27:13.681Z,14.50
2023-09-10T04:31:19.064Z,14.40
2023-09-10T04:35:22.557Z,14.30
2023-09-10T04:39:28.532Z,14.30
2023-09-10T04:43:33.339Z,14.30
2023-09-10T04:47:36.464Z,14.30
2023-09-10T04:51:39.919Z,14.30
2023-09-10T04:55:45.772Z,14.30
2023-09-10T04:59:52.795Z,14.40
2023-09-10T05:03:57.174Z,14.50
2023-09-10T05:08:00.240Z,14.60
2023-09-10T05:12:05.920Z,14.60
2023-09-10T05:16:14.613Z,14.60
2023-09-10T05:20:18.194Z,14.70
2023-09-10T05:24:21.930Z,14.80
2023-09-10T05:28:27.984Z,14.90
2023-09-10T05:32:35.053Z,15.00
2023-09-10T05:36:39.478Z,15.10
2023-09-10T05:40:42.783Z,15.30
2023-09-10T05:44:52.380Z,15.40
2023-09-10T05:48:56.971Z,15.60
2023-09-10T05:53:01.429Z,15.70
2023-09-10T05:57:07.462Z,15.90
2023-09-10T06:01:10.905Z,16.10
2023-09-10T06:05:17.219Z,16.30
2023-09-10T06:09:20.517Z,16.50
2023-09-10T06:13:29.590Z,16.60
2023-09-10T06:17:32.971Z,16.80
2023-09-10T06:21:38.886Z,17.00
2023-09-10T06:25:42.084Z,17.20
2023-09-10T06:29:48.179Z,17.40
2023-09-10T06:33:51.261Z,17.70
2023-09-10T06:37:55.959Z,17.90
2023-09-10T06:41:59.721Z,18.10
2023-09-10T06:46:02.849Z,18.40
2023-09-10T06:50:08.266Z,18.60
2023-09-10T06:54:12.701Z,18.80
2023-09-10T06:58:18.687Z,19.20
2023-09-10T07:02:22.968Z,19.40
2023-09-10T07:06:27.158Z,19.70
2023-09-10T07:10:31.621Z,19.90
2023-09-10T07:14:36.114Z,20.20
2023-09-10T07:18:40.962Z,20.50
2023-09-10T07:22:44.212Z,20.90
2023-09-10T07:26:53.222Z,21.20
2023-09-10T07:30:57.848Z,21.60
2023-09-10T07:35:08.471Z,22.00
2023-09-10T07:39:15.528Z,22.40
2023-09-10T07:43:20.357Z,22.80
2023-09-10T07:47:24.698Z,23.20
2023-09-10T07:51:28.119Z,23.60
2023-09-10T07:55:31.180Z,24.10
2023-09-10T07:59:35.877Z,24.50
2023-09-10T08:03:40.267Z,25.10
2023-09-10T08:07:43.462Z,25.60
2023-09-10T08:11:50.041Z,26.00
2023-09-10T08:15:55.543Z,26.40
2023-09-10T08:20:02.763Z,26.80
2023-09-10T08:24:08.953Z,27.40
2023-09-10T08:28:12.739Z,28.30
2023-09-10T08:32:18.006Z,29.00
2023-09-10T08:36:21.117Z,29.60
2023-09-10T08:40:25.221Z,30.10
2023-09-10T08:44:32.643Z,30.30
2023-09-10T08:48:41.698Z,30.60
2023-09-10T08:52:51.729Z,31.10
2023-09-10T08:56:56.704Z,31.50
2023-09-10T09:01:01.466Z,31.80
2023-09-10T09:05:09.396Z,32.00
2023-09-10T09:09:19.393Z,32.30
2023-09-10T09:13:24.308Z,32.70
2023-09-10T09:17:28.444Z,33.10
2023-09-10T09:21:34.470Z,33.30
2023-09-10T09:25:41.348Z,33.70
2023-09-10T09:29:45.404Z,33.90
2023-09-10T09:33:48.495Z,33.90
2023-09-10T09:37:55.174Z,34.10
2023-09-10T09:42:04.189Z,34.40
2023-09-10T09:46:07.627Z,34.40
2023-09-10T09:50:17.805Z,34.50
2023-09-10T09:54:22.373Z,34.40
2023-09-10T09:58:32.181Z,34.30
2023-09-10T10:02:41.751Z,34.60
2023-09-10T10:06:49.840Z,34.80
2023-09-10T10:10:54.869Z,35.00
2023-09-10T10:15:01.026Z,35.10
2023-09-10T10:19:05.841Z,35.20
2023-09-10T10:23:24.091Z,35.30
2023-09-10T10:27:33.705Z,35.30
2023-09-10T10:31:40.659Z,35.40
2023-09-10T10:35:57.567Z,35.30
2023-09-10T10:40:08.899Z,34.40
2023-09-10T10:44:21.560Z,33.60
2023-09-10T10:48:27.533Z,33.30
2023-09-10T10:52:35.788Z,33.60
2023-09-10T10:56:48.264Z,33.90
2023-09-10T11:00:54.041Z,34.30
2023-09-10T11:05:03.750Z,34.40
2023-09-10T11:09:36.573Z,34.50
2023-09-10T11:14:04.482Z,34.70
2023-09-10T11:18:48.074Z,34.50
2023-09-10T11:23:13.323Z,34.10
2023-09-10T11:27:21.923Z,34.10
2023-09-10T11:31:47.120Z,34.30
2023-09-10T11:35:55.598Z,34.40
2023-09-10T11:40:06.578Z,34.60
2023-09-10T11:44:09.694Z,35.00
2023-09-10T11:48:13.030Z,35.30
2023-09-10T11:52:18.363Z,35.40
2023-09-10T11:56:24.368Z,35.40
2023-09-10T12:00:27.617Z,35.30
2023-09-10T12:04:31.178Z,34.80
2023-09-10T12:08:40.342Z,34.30
2023-09-10T12:12:48.155Z,34.10
2023-09-10T12:16:55.346Z,34.30
2023-09-10T12:20:59.477Z,34.40
2023-09-10T12:25:06.306Z,34.60
2023-09-10T12:29:10.121Z,34.80
2023-09-10T12:33:15.877Z,34.90
2023-09-10T12:37:20.830Z,35.10
2023-09-10T12:41:25.424Z,35.20
2023-09-10T12:45:28.705Z,35.20
2023-09-10T12:49:35.256Z,35.30
2023-09-10T12:53:38.907Z,35.50
2023-09-10T12:57:43.708Z,35.70
2023-09-10T13:01:47.233Z,35.70
2023-09-10T13:05:52.848Z,35.70
2023-09-10T13:09:56.354Z,35.80
2023-09-10T13:14:02.362Z,35.80
2023-09-10T13:18:11.099Z,35.70
2023-09-10T13:22:14.191Z,35.60
2023-09-10T13:26:21.993Z,35.40
2023-09-10T13:30:26.479Z,35.40
2023-09-10T13:34:30.725Z,34.80
2023-09-10T13:38:33.765Z,34.30
2023-09-10T13:42:38.206Z,34.10
2023-09-10T13:46:43.109Z,34.00
2023-09-10T13:50:47.928Z,34.00
2023-09-10T13:54:50.960Z,34.00
2023-09-10T13:58:54.170Z,33.90
2023-09-10T14:03:02.110Z,33.70
2023-09-10T14:07:05.756Z,33.50
2023-09-10T14:11:11.208Z,33.20
2023-09-10T14:15:16.476Z,32.90
2023-09-10T14:19:22.224Z,32.50
2023-09-10T14:23:29.752Z,32.20
2023-09-10T14:27:34.522Z,31.90
2023-09-10T14:31:37.919Z,31.70
2023-09-10T14:35:43.642Z,32.00
2023-09-10T14:39:49.183Z,32.40
2023-09-10T14:43:53.435Z,32.30
2023-09-10T14:47:56.546Z,32.00
2023-09-10T14:52:01.423Z,31.80
2023-09-10T14:56:07.764Z,31.70
2023-09-10T15:00:11.439Z,31.70
2023-09-10T15:04:16.734Z,32.10
2023-09-10T15:08:23.173Z,32.50
2023-09-10T15:12:27.686Z,32.90
2023-09-10T15:16:32.883Z,33.10
2023-09-10T15:20:40.487Z,33.20
2023-09-10T15:24:45.165Z,33.20
2023-09-10T15:28:48.267Z,33.30
2023-09-10T15:32:51.789Z,33.40
2023-09-10T15:36:54.983Z,33.50
2023-09-10T15:41:00.322Z,33.50
2023-09-10T15:45:05.103Z,33.60
2023-09-10T15:49:08.542Z,33.70
2023-09-10T15:53:18.552Z,33.90
2023-09-10T15:57:26.746Z,34.10
2023-09-10T16:01:31.092Z,34.20
2023-09-10T16:05:36.522Z,34.20
2023-09-10T16:09:40.013Z,34.30
2023-09-10T16:13:47.746Z,34.40
2023-09-10T16:17:50.872Z,34.40
2023-09-10T16:21:55.708Z,34.40
2023-09-10T16:25:59.289Z,34.30
2023-09-10T16:30:04.034Z,34.20
2023-09-10T16:34:10.021Z,33.90
2023-09-10T16:38:15.753Z,33.40
2023-09-10T16:42:18.912Z,33.00
2023-09-10T16:46:23.524Z,32.50
2023-09-10T16:50:26.739Z,32.10
2023-09-10T16:54:30.077Z,31.70
2023-09-10T16:58:36.783Z,31.30
2023-09-10T17:02:45.421Z,30.80
2023-09-10T17:06:48.660Z,30.40
2023-09-10T17:10:51.895Z,29.90
2023-09-10T17:14:54.983Z,29.20
2023-09-10T17:18:59.431Z,28.70
2023-09-10T17:23:05.115Z,28.20
2023-09-10T17:27:13.236Z,27.70
2023-09-10T17:31:17.306Z,27.20
2023-09-10T17:35:24.849Z,26.90
2023-09-10T17:39:28.786Z,26.60
2023-09-10T17:43:34.580Z,26.30
2023-09-10T17:47:39.575Z,26.10
2023-09-10T17:51:44.071Z,25.80
2023-09-10T17:55:49.991Z,25.60
2023-09-10T17:59:54.220Z,25.40
2023-09-10T18:03:57.892Z,25.20
2023-09-10T18:08:03.481Z,25.00
2023-09-10T18:12:07.415Z,24.80
2023-09-10T18:16:11.530Z,24.60
2023-09-10T18:20:20.512Z,24.40
2023-09-10T18:24:25.785Z,24.30
2023-09-10T18:28:31.232Z,24.10
2023-09-10T18:32:35.443Z,24.00
2023-09-10T18:36:52.176Z,23.80
2023-09-10T18:40:58.145Z,23.70
2023-09-10T18:45:02.012Z,23.50
2023-09-10T18:49:05.683Z,23.40
2023-09-10T18:53:08.763Z,23.30
2023-09-10T18:57:16.892Z,23.10
2023-09-10T19:01:21.217Z,23.00
2023-09-10T19:05:25.853Z,22.90
2023-09-10T19:09:29.421Z,22.80
2023-09-10T19:13:35.144Z,22.70
2023-09-10T19:17:38.843Z,22.70
2023-09-10T19:21:42.097Z,22.60
2023-09-10T19:25:46.361Z,22.60
2023-09-10T19:29:51.060Z,22.50
2023-09-10T19:33:54.396Z,22.50
2023-09-10T19:37:57.766Z,22.40
2023-09-10T19:42:05.796Z,22.30
2023-09-10T19:46:10.704Z,22.10
2023-09-10T19:50:14.058Z,22.00
2023-09-10T19:54:17.683Z,21.90
2023-09-10T19:58:21.258Z,21.80
2023-09-10T20:02:29.838Z,21.60
2023-09-10T20:06:35.812Z,21.50
2023-09-10T20:10:38.936Z,21.40
2023-09-10T20:14:42.089Z,21.40
2023-09-10T20:18:47.216Z,21.40
2023-09-10T20:22:50.416Z,21.40
2023-09-10T20:26:57.413Z,21.30
2023-09-10T20:31:03.565Z,21.30
2023-09-10T20:35:09.036Z,21.10
2023-09-10T20:39:12.444Z,21.00
2023-09-10T20:43:18.361Z,20.90
2023-09-10T20:47:24.293Z,20.80
2023-09-10T20:51:30.654Z,20.80
2023-09-10T20:55:33.998Z,20.80
2023-09-10T20:59:37.081Z,20.80
2023-09-10T21:03:40.905Z,20.80
2023-09-10T21:07:47.812Z,20.80
2023-09-10T21:11:52.601Z,20.80
2023-09-10T21:15:57.501Z,20.90
2023-09-10T21:20:00.825Z,20.90
2023-09-10T21:24:11.974Z,21.10
2023-09-10T21:28:18.334Z,21.10
2023-09-10T21:32:22.843Z,21.20
2023-09-10T21:36:27.677Z,21.30
2023-09-10T21:40:32.223Z,21.40
2023-09-10T21:44:35.568Z,21.40
2023-09-10T21:48:41.704Z,21.40
2023-09-10T21:52:47.429Z,21.30
2023-09-10T21:56:51.901Z,21.30
2023-09-10T22:00:55.022Z,21.20
2023-09-10T22:05:01.846Z,21.20
2023-09-10T22:09:10.213Z,21.10
2023-09-10T22:13:22.895Z,21.00
2023-09-10T22:17:30.829Z,20.80
2023-09-10T22:21:36.944Z,20.70
2023-09-10T22:25:42.750Z,20.60
2023-09-10T22:29:53.574Z,20.50
2023-09-10T22:34:00.304Z,20.40
2023-09-10T22:38:08.785Z,20.30
2023-09-10T22:42:11.919Z,20.20
2023-09-10T22:46:16.413Z,20.10
2023-09-10T22:50:21.935Z,20.00
2023-09-10T22:54:25.354Z,19.90
2023-09-10T22:58:28.596Z,19.80
2023-09-10T23:02:37.498Z,19.70
2023-09-10T23:06:42.435Z,19.60
2023-09-10T23:10:48.340Z,19.50
2023-09-10T23:14:51.433Z,19.50
2023-09-10T23:18:57.492Z,19.50
2023-09-10T23:23:04.736Z,19.40
2023-09-10T23:27:07.800Z,19.50
2023-09-10T23:31:11.090Z,19.50
2023-09-10T23:35:19.603Z,19.50
2023-09-10T23:39:25.742Z,19.50
2023-09-10T23:43:30.452Z,19.30
2023-09-10T23:47:37.080Z,19.20
2023-09-10T23:51:44.012Z,19.10
2023-09-10T23:55:48.899Z,19.00
2023-09-10T23:59:52.083Z,18.90
